sensor_id;sensor_type;location;lat;lon;timestamp;P1;durP1;ratioP1;P2;durP2;ratioP2
13230;SDS011;6681;53.254;10.398;2023-08-01T00:00:31;2.77;;;2.07;;
13230;SDS011;6681;53.254;10.398;2023-08-01T00:02:56;2.53;;;1.60;;
13230;SDS011;6681;53.254;10.398;2023-08-01T00:05:23;1.10;;;0.97;;
13230;SDS011;6681;53.254;10.398;2023-08-01T00:07:48;1.60;;;1.00;;
13230;SDS011;6681;53.254;10.398;2023-08-01T00:10:14;2.23;;;0.93;;
13230;SDS011;6681;53.254;10.398;2023-08-01T00:12:41;1.17;;;0.60;;
13230;SDS011;6681;53.254;10.398;2023-08-01T00:15:07;0.90;;;0.67;;
13230;SDS011;6681;53.254;10.398;2023-08-01T00:17:33;0.80;;;0.80;;
13230;SDS011;6681;53.254;10.398;2023-08-01T00:19:59;0.60;;;0.60;;
13230;SDS011;6681;53.254;10.398;2023-08-01T00:22:26;0.53;;;0.53;;
13230;SDS011;6681;53.254;10.398;2023-08-01T00:24:52;1.10;;;1.10;;
13230;SDS011;6681;53.254;10.398;2023-08-01T00:27:17;1.73;;;0.50;;
13230;SDS011;6681;53.254;10.398;2023-08-01T00:29:43;1.63;;;0.40;;
13230;SDS011;6681;53.254;10.398;2023-08-01T00:32:09;0.97;;;0.83;;
13230;SDS011;6681;53.254;10.398;2023-08-01T00:34:35;0.63;;;0.50;;
13230;SDS011;6681;53.254;10.398;2023-08-01T00:37:01;0.60;;;0.40;;
13230;SDS011;6681;53.254;10.398;2023-08-01T00:39:27;1.40;;;0.37;;
13230;SDS011;6681;53.254;10.398;2023-08-01T00:41:52;3.67;;;0.50;;
13230;SDS011;6681;53.254;10.398;2023-08-01T00:44:18;0.60;;;0.30;;
13230;SDS011;6681;53.254;10.398;2023-08-01T00:46:44;0.40;;;0.40;;
13230;SDS011;6681;53.254;10.398;2023-08-01T00:49:10;1.50;;;0.47;;
13230;SDS011;6681;53.254;10.398;2023-08-01T00:51:35;0.13;;;0.13;;
13230;SDS011;6681;53.254;10.398;2023-08-01T00:54:01;1.53;;;0.30;;
13230;SDS011;6681;53.254;10.398;2023-08-01T00:56:27;0.30;;;0.30;;
13230;SDS011;6681;53.254;10.398;2023-08-01T00:58:53;0.50;;;0.50;;
13230;SDS011;6681;53.254;10.398;2023-08-01T01:01:18;1.70;;;0.40;;
13230;SDS011;6681;53.254;10.398;2023-08-01T01:03:44;1.43;;;0.47;;
13230;SDS011;6681;53.254;10.398;2023-08-01T01:06:14;0.93;;;0.30;;
13230;SDS011;6681;53.254;10.398;2023-08-01T01:09:13;0.50;;;0.50;;
13230;SDS011;6681;53.254;10.398;2023-08-01T01:11:43;2.43;;;0.60;;
13230;SDS011;6681;53.254;10.398;2023-08-01T01:14:09;1.10;;;0.80;;
13230;SDS011;6681;53.254;10.398;2023-08-01T01:16:35;2.13;;;0.83;;
13230;SDS011;6681;53.254;10.398;2023-08-01T01:19:01;1.40;;;1.30;;
13230;SDS011;6681;53.254;10.398;2023-08-01T01:21:27;1.47;;;1.37;;
13230;SDS011;6681;53.254;10.398;2023-08-01T01:23:53;1.30;;;1.20;;
13230;SDS011;6681;53.254;10.398;2023-08-01T01:26:20;1.50;;;1.40;;
13230;SDS011;6681;53.254;10.398;2023-08-01T01:28:49;1.30;;;1.20;;
13230;SDS011;6681;53.254;10.398;2023-08-01T01:31:16;3.50;;;1.87;;
13230;SDS011;6681;53.254;10.398;2023-08-01T01:33:42;1.20;;;1.10;;
13230;SDS011;6681;53.254;10.398;2023-08-01T01:36:08;1.73;;;1.63;;
13230;SDS011;6681;53.254;10.398;2023-08-01T01:38:34;2.47;;;1.80;;
13230;SDS011;6681;53.254;10.398;2023-08-01T01:41:00;1.80;;;1.50;;
13230;SDS011;6681;53.254;10.398;2023-08-01T01:43:25;2.07;;;1.70;;
13230;SDS011;6681;53.254;10.398;2023-08-01T01:45:51;1.70;;;1.60;;
13230;SDS011;6681;53.254;10.398;2023-08-01T01:48:17;2.37;;;2.13;;
13230;SDS011;6681;53.254;10.398;2023-08-01T01:50:42;2.50;;;1.70;;
13230;SDS011;6681;53.254;10.398;2023-08-01T01:53:08;1.83;;;1.37;;
13230;SDS011;6681;53.254;10.398;2023-08-01T01:55:33;1.77;;;1.67;;
13230;SDS011;6681;53.254;10.398;2023-08-01T01:57:59;3.90;;;2.27;;
13230;SDS011;6681;53.254;10.398;2023-08-01T02:00:25;1.87;;;1.77;;
13230;SDS011;6681;53.254;10.398;2023-08-01T02:02:51;2.47;;;2.17;;
13230;SDS011;6681;53.254;10.398;2023-08-01T02:05:16;3.47;;;2.10;;
13230;SDS011;6681;53.254;10.398;2023-08-01T02:07:42;3.13;;;2.90;;
13230;SDS011;6681;53.254;10.398;2023-08-01T02:10:07;2.13;;;1.83;;
13230;SDS011;6681;53.254;10.398;2023-08-01T02:12:33;3.20;;;2.67;;
13230;SDS011;6681;53.254;10.398;2023-08-01T02:15:00;2.63;;;2.37;;
13230;SDS011;6681;53.254;10.398;2023-08-01T02:17:26;2.57;;;2.37;;
13230;SDS011;6681;53.254;10.398;2023-08-01T02:19:52;2.93;;;2.70;;
13230;SDS011;6681;53.254;10.398;2023-08-01T02:22:17;3.10;;;2.30;;
13230;SDS011;6681;53.254;10.398;2023-08-01T02:24:43;4.13;;;2.87;;
13230;SDS011;6681;53.254;10.398;2023-08-01T02:27:09;2.83;;;2.50;;
13230;SDS011;6681;53.254;10.398;2023-08-01T02:29:34;2.93;;;2.73;;
13230;SDS011;6681;53.254;10.398;2023-08-01T02:32:00;3.10;;;2.80;;
13230;SDS011;6681;53.254;10.398;2023-08-01T02:34:26;2.53;;;2.33;;
13230;SDS011;6681;53.254;10.398;2023-08-01T02:36:52;3.13;;;2.23;;
13230;SDS011;6681;53.254;10.398;2023-08-01T02:39:18;6.80;;;3.33;;
13230;SDS011;6681;53.254;10.398;2023-08-01T02:41:43;2.93;;;2.73;;
13230;SDS011;6681;53.254;10.398;2023-08-01T02:44:09;3.57;;;3.27;;
13230;SDS011;6681;53.254;10.398;2023-08-01T02:46:35;3.80;;;3.33;;
13230;SDS011;6681;53.254;10.398;2023-08-01T02:49:00;2.87;;;2.60;;
13230;SDS011;6681;53.254;10.398;2023-08-01T02:51:26;4.40;;;3.00;;
13230;SDS011;6681;53.254;10.398;2023-08-01T02:53:52;2.97;;;2.73;;
13230;SDS011;6681;53.254;10.398;2023-08-01T02:56:17;3.47;;;3.27;;
13230;SDS011;6681;53.254;10.398;2023-08-01T02:58:43;2.57;;;2.40;;
13230;SDS011;6681;53.254;10.398;2023-08-01T03:01:09;2.47;;;2.37;;
13230;SDS011;6681;53.254;10.398;2023-08-01T03:03:35;2.53;;;2.33;;
13230;SDS011;6681;53.254;10.398;2023-08-01T03:06:01;2.93;;;2.73;;
13230;SDS011;6681;53.254;10.398;2023-08-01T03:08:27;3.50;;;2.77;;
13230;SDS011;6681;53.254;10.398;2023-08-01T03:10:53;2.37;;;2.17;;
13230;SDS011;6681;53.254;10.398;2023-08-01T03:13:19;3.07;;;2.47;;
13230;SDS011;6681;53.254;10.398;2023-08-01T03:15:45;2.70;;;2.50;;
13230;SDS011;6681;53.254;10.398;2023-08-01T03:18:11;2.90;;;2.60;;
13230;SDS011;6681;53.254;10.398;2023-08-01T03:20:36;4.10;;;2.93;;
13230;SDS011;6681;53.254;10.398;2023-08-01T03:23:02;3.30;;;3.00;;
13230;SDS011;6681;53.254;10.398;2023-08-01T03:25:28;4.20;;;2.73;;
13230;SDS011;6681;53.254;10.398;2023-08-01T03:27:54;2.57;;;2.00;;
13230;SDS011;6681;53.254;10.398;2023-08-01T03:30:20;4.07;;;2.73;;
13230;SDS011;6681;53.254;10.398;2023-08-01T03:32:46;3.60;;;2.90;;
13230;SDS011;6681;53.254;10.398;2023-08-01T03:35:12;3.70;;;2.57;;
13230;SDS011;6681;53.254;10.398;2023-08-01T03:37:39;3.60;;;3.27;;
13230;SDS011;6681;53.254;10.398;2023-08-01T03:40:05;5.53;;;3.20;;
13230;SDS011;6681;53.254;10.398;2023-08-01T03:42:35;2.80;;;2.57;;
13230;SDS011;6681;53.254;10.398;2023-08-01T03:45:05;4.33;;;2.67;;
13230;SDS011;6681;53.254;10.398;2023-08-01T03:47:31;3.00;;;2.33;;
13230;SDS011;6681;53.254;10.398;2023-08-01T03:49:57;2.73;;;2.53;;
13230;SDS011;6681;53.254;10.398;2023-08-01T03:52:23;2.73;;;2.23;;
13230;SDS011;6681;53.254;10.398;2023-08-01T03:54:49;2.83;;;2.60;;
13230;SDS011;6681;53.254;10.398;2023-08-01T03:57:18;2.60;;;1.83;;
13230;SDS011;6681;53.254;10.398;2023-08-01T03:59:43;2.83;;;1.87;;
13230;SDS011;6681;53.254;10.398;2023-08-01T04:02:09;2.57;;;2.37;;
13230;SDS011;6681;53.254;10.398;2023-08-01T04:04:35;2.50;;;2.20;;
13230;SDS011;6681;53.254;10.398;2023-08-01T04:07:00;2.80;;;2.60;;
13230;SDS011;6681;53.254;10.398;2023-08-01T04:09:26;3.47;;;3.23;;
13230;SDS011;6681;53.254;10.398;2023-08-01T04:11:51;1.80;;;1.70;;
13230;SDS011;6681;53.254;10.398;2023-08-01T04:14:17;3.73;;;2.60;;
13230;SDS011;6681;53.254;10.398;2023-08-01T04:16:43;5.53;;;2.53;;
13230;SDS011;6681;53.254;10.398;2023-08-01T04:19:08;2.47;;;2.27;;
13230;SDS011;6681;53.254;10.398;2023-08-01T04:21:34;3.40;;;2.37;;
13230;SDS011;6681;53.254;10.398;2023-08-01T04:24:00;2.27;;;2.17;;
13230;SDS011;6681;53.254;10.398;2023-08-01T04:26:26;5.87;;;3.13;;
13230;SDS011;6681;53.254;10.398;2023-08-01T04:28:51;2.87;;;2.67;;
13230;SDS011;6681;53.254;10.398;2023-08-01T04:31:17;3.63;;;2.97;;
13230;SDS011;6681;53.254;10.398;2023-08-01T04:33:43;2.17;;;1.97;;
13230;SDS011;6681;53.254;10.398;2023-08-01T04:36:09;5.30;;;2.90;;
13230;SDS011;6681;53.254;10.398;2023-08-01T04:38:35;3.17;;;2.90;;
13230;SDS011;6681;53.254;10.398;2023-08-01T04:41:01;3.53;;;2.87;;
13230;SDS011;6681;53.254;10.398;2023-08-01T04:43:27;2.30;;;2.10;;
13230;SDS011;6681;53.254;10.398;2023-08-01T04:45:53;4.10;;;2.80;;
13230;SDS011;6681;53.254;10.398;2023-08-01T04:48:19;4.57;;;3.90;;
13230;SDS011;6681;53.254;10.398;2023-08-01T04:50:44;4.30;;;3.00;;
13230;SDS011;6681;53.254;10.398;2023-08-01T04:53:10;3.27;;;2.47;;
13230;SDS011;6681;53.254;10.398;2023-08-01T04:55:36;3.70;;;3.07;;
13230;SDS011;6681;53.254;10.398;2023-08-01T04:58:02;2.77;;;2.50;;
13230;SDS011;6681;53.254;10.398;2023-08-01T05:00:27;2.10;;;1.97;;
13230;SDS011;6681;53.254;10.398;2023-08-01T05:02:53;4.40;;;2.43;;
13230;SDS011;6681;53.254;10.398;2023-08-01T05:05:18;4.47;;;3.13;;
13230;SDS011;6681;53.254;10.398;2023-08-01T05:07:44;4.33;;;2.20;;
13230;SDS011;6681;53.254;10.398;2023-08-01T05:10:10;2.80;;;2.60;;
13230;SDS011;6681;53.254;10.398;2023-08-01T05:12:35;2.83;;;2.60;;
13230;SDS011;6681;53.254;10.398;2023-08-01T05:15:01;6.27;;;4.07;;
13230;SDS011;6681;53.254;10.398;2023-08-01T05:17:27;4.67;;;2.73;;
13230;SDS011;6681;53.254;10.398;2023-08-01T05:19:53;4.17;;;3.77;;
13230;SDS011;6681;53.254;10.398;2023-08-01T05:22:20;3.87;;;3.57;;
13230;SDS011;6681;53.254;10.398;2023-08-01T05:24:46;3.73;;;3.17;;
13230;SDS011;6681;53.254;10.398;2023-08-01T05:27:11;2.87;;;2.67;;
13230;SDS011;6681;53.254;10.398;2023-08-01T05:29:37;4.40;;;3.33;;
13230;SDS011;6681;53.254;10.398;2023-08-01T05:32:03;4.13;;;3.70;;
13230;SDS011;6681;53.254;10.398;2023-08-01T05:34:28;5.73;;;3.43;;
13230;SDS011;6681;53.254;10.398;2023-08-01T05:36:54;3.10;;;2.87;;
13230;SDS011;6681;53.254;10.398;2023-08-01T05:39:20;8.23;;;2.57;;
13230;SDS011;6681;53.254;10.398;2023-08-01T05:41:45;3.27;;;2.83;;
13230;SDS011;6681;53.254;10.398;2023-08-01T05:44:11;9.47;;;3.33;;
13230;SDS011;6681;53.254;10.398;2023-08-01T05:46:37;3.47;;;3.17;;
13230;SDS011;6681;53.254;10.398;2023-08-01T05:49:02;4.17;;;3.77;;
13230;SDS011;6681;53.254;10.398;2023-08-01T05:51:28;3.90;;;3.60;;
13230;SDS011;6681;53.254;10.398;2023-08-01T05:53:53;5.80;;;3.57;;
13230;SDS011;6681;53.254;10.398;2023-08-01T05:56:19;4.37;;;3.40;;
13230;SDS011;6681;53.254;10.398;2023-08-01T05:58:45;4.27;;;3.93;;
13230;SDS011;6681;53.254;10.398;2023-08-01T06:01:10;7.93;;;5.07;;
13230;SDS011;6681;53.254;10.398;2023-08-01T06:03:37;4.97;;;4.53;;
13230;SDS011;6681;53.254;10.398;2023-08-01T06:06:03;4.83;;;4.33;;
13230;SDS011;6681;53.254;10.398;2023-08-01T06:08:29;5.67;;;4.93;;
13230;SDS011;6681;53.254;10.398;2023-08-01T06:10:55;5.67;;;4.77;;
13230;SDS011;6681;53.254;10.398;2023-08-01T06:13:20;4.70;;;4.30;;
13230;SDS011;6681;53.254;10.398;2023-08-01T06:15:46;5.70;;;3.87;;
13230;SDS011;6681;53.254;10.398;2023-08-01T06:18:12;5.40;;;4.77;;
13230;SDS011;6681;53.254;10.398;2023-08-01T06:20:37;7.17;;;4.17;;
13230;SDS011;6681;53.254;10.398;2023-08-01T06:23:03;4.97;;;4.47;;
13230;SDS011;6681;53.254;10.398;2023-08-01T06:25:29;7.00;;;4.60;;
13230;SDS011;6681;53.254;10.398;2023-08-01T06:27:54;4.20;;;3.90;;
13230;SDS011;6681;53.254;10.398;2023-08-01T06:30:20;4.80;;;4.40;;
13230;SDS011;6681;53.254;10.398;2023-08-01T06:32:46;6.70;;;4.73;;
13230;SDS011;6681;53.254;10.398;2023-08-01T06:35:11;6.20;;;4.53;;
13230;SDS011;6681;53.254;10.398;2023-08-01T06:37:37;6.27;;;4.03;;
13230;SDS011;6681;53.254;10.398;2023-08-01T06:40:02;5.27;;;4.87;;
13230;SDS011;6681;53.254;10.398;2023-08-01T06:42:31;5.07;;;4.57;;
13230;SDS011;6681;53.254;10.398;2023-08-01T06:45:00;6.10;;;4.47;;
13230;SDS011;6681;53.254;10.398;2023-08-01T06:47:25;9.63;;;5.23;;
13230;SDS011;6681;53.254;10.398;2023-08-01T06:49:51;8.60;;;5.13;;
13230;SDS011;6681;53.254;10.398;2023-08-01T06:52:17;8.10;;;4.93;;
13230;SDS011;6681;53.254;10.398;2023-08-01T06:54:42;6.00;;;5.50;;
13230;SDS011;6681;53.254;10.398;2023-08-01T06:57:08;6.43;;;5.27;;
13230;SDS011;6681;53.254;10.398;2023-08-01T06:59:33;6.27;;;5.37;;
13230;SDS011;6681;53.254;10.398;2023-08-01T07:01:59;6.57;;;5.07;;
13230;SDS011;6681;53.254;10.398;2023-08-01T07:04:25;8.17;;;5.50;;
13230;SDS011;6681;53.254;10.398;2023-08-01T07:06:51;6.43;;;5.47;;
13230;SDS011;6681;53.254;10.398;2023-08-01T07:09:17;7.07;;;5.37;;
13230;SDS011;6681;53.254;10.398;2023-08-01T07:11:42;11.17;;;7.03;;
13230;SDS011;6681;53.254;10.398;2023-08-01T07:14:08;12.63;;;5.67;;
13230;SDS011;6681;53.254;10.398;2023-08-01T07:16:33;9.30;;;5.57;;
13230;SDS011;6681;53.254;10.398;2023-08-01T07:18:59;8.37;;;5.43;;
13230;SDS011;6681;53.254;10.398;2023-08-01T07:21:26;8.77;;;7.07;;
13230;SDS011;6681;53.254;10.398;2023-08-01T07:23:51;6.63;;;4.50;;
13230;SDS011;6681;53.254;10.398;2023-08-01T07:26:17;9.13;;;4.27;;
13230;SDS011;6681;53.254;10.398;2023-08-01T07:28:43;4.63;;;3.97;;
13230;SDS011;6681;53.254;10.398;2023-08-01T07:31:08;3.40;;;3.10;;
13230;SDS011;6681;53.254;10.398;2023-08-01T07:33:34;4.87;;;3.20;;
13230;SDS011;6681;53.254;10.398;2023-08-01T07:36:00;3.40;;;3.10;;
13230;SDS011;6681;53.254;10.398;2023-08-01T07:38:26;5.63;;;2.93;;
13230;SDS011;6681;53.254;10.398;2023-08-01T07:40:52;3.30;;;2.70;;
13230;SDS011;6681;53.254;10.398;2023-08-01T07:43:18;3.70;;;2.83;;
13230;SDS011;6681;53.254;10.398;2023-08-01T07:45:44;7.53;;;2.47;;
13230;SDS011;6681;53.254;10.398;2023-08-01T07:48:10;4.07;;;2.83;;
13230;SDS011;6681;53.254;10.398;2023-08-01T07:50:36;2.37;;;1.83;;
13230;SDS011;6681;53.254;10.398;2023-08-01T07:53:01;2.80;;;2.47;;
13230;SDS011;6681;53.254;10.398;2023-08-01T07:55:27;3.67;;;2.23;;
13230;SDS011;6681;53.254;10.398;2023-08-01T07:57:53;2.57;;;2.30;;
13230;SDS011;6681;53.254;10.398;2023-08-01T08:00:18;3.70;;;2.50;;
13230;SDS011;6681;53.254;10.398;2023-08-01T08:02:44;5.93;;;2.33;;
13230;SDS011;6681;53.254;10.398;2023-08-01T08:05:10;5.80;;;2.57;;
13230;SDS011;6681;53.254;10.398;2023-08-01T08:07:37;5.23;;;2.40;;
13230;SDS011;6681;53.254;10.398;2023-08-01T08:10:06;4.83;;;2.53;;
13230;SDS011;6681;53.254;10.398;2023-08-01T08:12:32;4.30;;;2.80;;
13230;SDS011;6681;53.254;10.398;2023-08-01T08:14:58;3.10;;;2.47;;
13230;SDS011;6681;53.254;10.398;2023-08-01T08:17:23;4.97;;;2.77;;
13230;SDS011;6681;53.254;10.398;2023-08-01T08:19:49;3.30;;;2.97;;
13230;SDS011;6681;53.254;10.398;2023-08-01T08:22:14;9.57;;;3.73;;
13230;SDS011;6681;53.254;10.398;2023-08-01T08:24:41;5.50;;;3.10;;
13230;SDS011;6681;53.254;10.398;2023-08-01T08:27:07;4.60;;;2.87;;
13230;SDS011;6681;53.254;10.398;2023-08-01T08:29:33;8.10;;;2.60;;
13230;SDS011;6681;53.254;10.398;2023-08-01T08:31:59;6.60;;;3.73;;
13230;SDS011;6681;53.254;10.398;2023-08-01T08:34:24;3.53;;;3.07;;
13230;SDS011;6681;53.254;10.398;2023-08-01T08:36:50;10.20;;;4.27;;
13230;SDS011;6681;53.254;10.398;2023-08-01T08:39:16;6.70;;;3.43;;
13230;SDS011;6681;53.254;10.398;2023-08-01T08:41:47;3.80;;;3.23;;
13230;SDS011;6681;53.254;10.398;2023-08-01T08:44:14;6.37;;;3.90;;
13230;SDS011;6681;53.254;10.398;2023-08-01T08:46:50;7.60;;;3.23;;
13230;SDS011;6681;53.254;10.398;2023-08-01T08:49:20;3.13;;;2.83;;
13230;SDS011;6681;53.254;10.398;2023-08-01T08:51:46;6.30;;;3.53;;
13230;SDS011;6681;53.254;10.398;2023-08-01T08:54:13;4.63;;;3.80;;
13230;SDS011;6681;53.254;10.398;2023-08-01T08:56:40;7.27;;;3.77;;
13230;SDS011;6681;53.254;10.398;2023-08-01T08:59:10;5.67;;;4.33;;
13230;SDS011;6681;53.254;10.398;2023-08-01T09:01:36;6.00;;;4.20;;
13230;SDS011;6681;53.254;10.398;2023-08-01T09:04:02;4.03;;;3.63;;
13230;SDS011;6681;53.254;10.398;2023-08-01T09:06:30;6.53;;;3.70;;
13230;SDS011;6681;53.254;10.398;2023-08-01T09:09:14;4.67;;;3.50;;
13230;SDS011;6681;53.254;10.398;2023-08-01T09:11:41;8.13;;;3.60;;
13230;SDS011;6681;53.254;10.398;2023-08-01T09:14:10;7.27;;;4.47;;
13230;SDS011;6681;53.254;10.398;2023-08-01T09:16:35;3.50;;;3.20;;
13230;SDS011;6681;53.254;10.398;2023-08-01T09:19:01;4.63;;;3.60;;
13230;SDS011;6681;53.254;10.398;2023-08-01T09:21:31;8.30;;;3.87;;
13230;SDS011;6681;53.254;10.398;2023-08-01T09:24:13;7.87;;;4.00;;
13230;SDS011;6681;53.254;10.398;2023-08-01T09:26:40;3.20;;;2.87;;
13230;SDS011;6681;53.254;10.398;2023-08-01T09:29:06;4.63;;;3.37;;
13230;SDS011;6681;53.254;10.398;2023-08-01T09:31:33;4.13;;;3.77;;
13230;SDS011;6681;53.254;10.398;2023-08-01T09:34:01;5.83;;;3.10;;
13230;SDS011;6681;53.254;10.398;2023-08-01T09:36:31;2.60;;;2.40;;
13230;SDS011;6681;53.254;10.398;2023-08-01T09:39:00;3.10;;;2.80;;
13230;SDS011;6681;53.254;10.398;2023-08-01T09:41:31;5.43;;;3.20;;
13230;SDS011;6681;53.254;10.398;2023-08-01T09:43:57;2.80;;;2.47;;
13230;SDS011;6681;53.254;10.398;2023-08-01T09:46:23;2.37;;;2.03;;
13230;SDS011;6681;53.254;10.398;2023-08-01T09:48:49;4.70;;;2.40;;
13230;SDS011;6681;53.254;10.398;2023-08-01T09:51:15;2.93;;;1.57;;
13230;SDS011;6681;53.254;10.398;2023-08-01T09:53:49;3.83;;;1.73;;
13230;SDS011;6681;53.254;10.398;2023-08-01T09:56:20;1.77;;;1.53;;
13230;SDS011;6681;53.254;10.398;2023-08-01T09:58:48;4.10;;;1.47;;
13230;SDS011;6681;53.254;10.398;2023-08-01T10:01:14;1.20;;;1.10;;
13230;SDS011;6681;53.254;10.398;2023-08-01T10:03:44;3.23;;;1.37;;
13230;SDS011;6681;53.254;10.398;2023-08-01T10:06:22;2.37;;;1.20;;
13230;SDS011;6681;53.254;10.398;2023-08-01T10:08:50;2.10;;;1.43;;
13230;SDS011;6681;53.254;10.398;2023-08-01T10:11:17;1.63;;;1.30;;
13230;SDS011;6681;53.254;10.398;2023-08-01T10:13:44;1.77;;;1.10;;
13230;SDS011;6681;53.254;10.398;2023-08-01T10:16:11;1.03;;;0.93;;
13230;SDS011;6681;53.254;10.398;2023-08-01T10:18:37;3.53;;;1.70;;
13230;SDS011;6681;53.254;10.398;2023-08-01T10:21:07;3.20;;;1.13;;
13230;SDS011;6681;53.254;10.398;2023-08-01T10:23:36;2.60;;;0.80;;
13230;SDS011;6681;53.254;10.398;2023-08-01T10:26:04;1.63;;;0.80;;
13230;SDS011;6681;53.254;10.398;2023-08-01T10:28:35;2.50;;;0.80;;
13230;SDS011;6681;53.254;10.398;2023-08-01T10:33:42;0.83;;;0.83;;
13230;SDS011;6681;53.254;10.398;2023-08-01T10:36:27;0.97;;;0.60;;
13230;SDS011;6681;53.254;10.398;2023-08-01T10:38:55;1.30;;;0.83;;
13230;SDS011;6681;53.254;10.398;2023-08-01T10:41:26;2.03;;;1.30;;
13230;SDS011;6681;53.254;10.398;2023-08-01T10:44:12;2.33;;;0.83;;
13230;SDS011;6681;53.254;10.398;2023-08-01T10:46:46;0.80;;;0.77;;
13230;SDS011;6681;53.254;10.398;2023-08-01T10:49:18;1.43;;;1.33;;
13230;SDS011;6681;53.254;10.398;2023-08-01T10:51:45;1.47;;;0.87;;
13230;SDS011;6681;53.254;10.398;2023-08-01T10:54:20;1.17;;;1.10;;
13230;SDS011;6681;53.254;10.398;2023-08-01T10:56:47;1.27;;;0.90;;
13230;SDS011;6681;53.254;10.398;2023-08-01T10:59:14;0.70;;;0.70;;
13230;SDS011;6681;53.254;10.398;2023-08-01T11:01:48;3.87;;;1.00;;
13230;SDS011;6681;53.254;10.398;2023-08-01T11:04:16;3.50;;;2.03;;
13230;SDS011;6681;53.254;10.398;2023-08-01T11:06:48;0.97;;;0.83;;
13230;SDS011;6681;53.254;10.398;2023-08-01T11:09:16;1.07;;;0.80;;
13230;SDS011;6681;53.254;10.398;2023-08-01T11:11:44;2.30;;;0.90;;
13230;SDS011;6681;53.254;10.398;2023-08-01T11:14:11;1.73;;;1.13;;
13230;SDS011;6681;53.254;10.398;2023-08-01T11:16:38;2.13;;;1.53;;
13230;SDS011;6681;53.254;10.398;2023-08-01T11:19:03;0.70;;;0.70;;
13230;SDS011;6681;53.254;10.398;2023-08-01T11:21:29;4.07;;;1.63;;
13230;SDS011;6681;53.254;10.398;2023-08-01T11:23:56;1.13;;;0.80;;
13230;SDS011;6681;53.254;10.398;2023-08-01T11:26:21;1.00;;;0.80;;
13230;SDS011;6681;53.254;10.398;2023-08-01T11:28:48;0.87;;;0.80;;
13230;SDS011;6681;53.254;10.398;2023-08-01T11:31:13;0.97;;;0.87;;
13230;SDS011;6681;53.254;10.398;2023-08-01T11:33:39;2.70;;;1.63;;
13230;SDS011;6681;53.254;10.398;2023-08-01T11:36:05;1.20;;;1.07;;
13230;SDS011;6681;53.254;10.398;2023-08-01T11:38:32;15.97;;;1.47;;
13230;SDS011;6681;53.254;10.398;2023-08-01T11:41:02;1.23;;;0.77;;
13230;SDS011;6681;53.254;10.398;2023-08-01T11:43:39;1.27;;;0.97;;
13230;SDS011;6681;53.254;10.398;2023-08-01T11:46:06;2.40;;;1.13;;
13230;SDS011;6681;53.254;10.398;2023-08-01T11:48:31;1.70;;;0.60;;
13230;SDS011;6681;53.254;10.398;2023-08-01T11:51:00;0.90;;;0.90;;
13230;SDS011;6681;53.254;10.398;2023-08-01T11:53:27;2.20;;;0.80;;
13230;SDS011;6681;53.254;10.398;2023-08-01T11:55:54;4.00;;;1.60;;
13230;SDS011;6681;53.254;10.398;2023-08-01T11:58:31;3.40;;;1.57;;
13230;SDS011;6681;53.254;10.398;2023-08-01T12:03:31;2.70;;;1.20;;
13230;SDS011;6681;53.254;10.398;2023-08-01T12:06:05;2.33;;;0.60;;
13230;SDS011;6681;53.254;10.398;2023-08-01T12:08:34;2.27;;;1.33;;
13230;SDS011;6681;53.254;10.398;2023-08-01T12:11:00;3.70;;;1.00;;
13230;SDS011;6681;53.254;10.398;2023-08-01T12:13:26;0.77;;;0.50;;
13230;SDS011;6681;53.254;10.398;2023-08-01T12:15:53;2.17;;;0.93;;
13230;SDS011;6681;53.254;10.398;2023-08-01T12:20:48;0.83;;;0.33;;
13230;SDS011;6681;53.254;10.398;2023-08-01T12:23:13;2.70;;;0.90;;
13230;SDS011;6681;53.254;10.398;2023-08-01T12:25:39;1.53;;;0.83;;
13230;SDS011;6681;53.254;10.398;2023-08-01T12:28:04;1.00;;;0.90;;
13230;SDS011;6681;53.254;10.398;2023-08-01T12:30:30;1.93;;;0.80;;
13230;SDS011;6681;53.254;10.398;2023-08-01T12:32:56;1.53;;;0.73;;
13230;SDS011;6681;53.254;10.398;2023-08-01T12:35:21;1.63;;;0.70;;
13230;SDS011;6681;53.254;10.398;2023-08-01T12:37:47;0.80;;;0.80;;
13230;SDS011;6681;53.254;10.398;2023-08-01T12:40:13;1.10;;;0.83;;
13230;SDS011;6681;53.254;10.398;2023-08-01T12:42:38;0.80;;;0.80;;
13230;SDS011;6681;53.254;10.398;2023-08-01T12:45:04;2.27;;;1.17;;
13230;SDS011;6681;53.254;10.398;2023-08-01T12:47:30;2.80;;;1.43;;
13230;SDS011;6681;53.254;10.398;2023-08-01T12:49:55;3.33;;;1.27;;
13230;SDS011;6681;53.254;10.398;2023-08-01T12:52:22;3.67;;;1.30;;
13230;SDS011;6681;53.254;10.398;2023-08-01T12:54:49;1.77;;;1.40;;
13230;SDS011;6681;53.254;10.398;2023-08-01T12:57:15;1.40;;;1.17;;
13230;SDS011;6681;53.254;10.398;2023-08-01T12:59:40;1.20;;;1.17;;
13230;SDS011;6681;53.254;10.398;2023-08-01T13:02:06;1.97;;;1.23;;
13230;SDS011;6681;53.254;10.398;2023-08-01T13:04:33;4.83;;;1.10;;
13230;SDS011;6681;53.254;10.398;2023-08-01T13:06:59;0.87;;;0.73;;
13230;SDS011;6681;53.254;10.398;2023-08-01T13:09:25;1.30;;;1.20;;
13230;SDS011;6681;53.254;10.398;2023-08-01T13:11:51;1.20;;;1.10;;
13230;SDS011;6681;53.254;10.398;2023-08-01T13:14:16;0.80;;;0.80;;
13230;SDS011;6681;53.254;10.398;2023-08-01T13:16:42;2.20;;;1.20;;
13230;SDS011;6681;53.254;10.398;2023-08-01T13:19:08;3.43;;;1.60;;
13230;SDS011;6681;53.254;10.398;2023-08-01T13:21:34;1.23;;;0.80;;
13230;SDS011;6681;53.254;10.398;2023-08-01T13:24:00;0.83;;;0.70;;
13230;SDS011;6681;53.254;10.398;2023-08-01T13:26:30;1.20;;;1.10;;
13230;SDS011;6681;53.254;10.398;2023-08-01T13:28:56;3.00;;;0.97;;
13230;SDS011;6681;53.254;10.398;2023-08-01T13:31:28;1.47;;;0.80;;
13230;SDS011;6681;53.254;10.398;2023-08-01T13:33:54;1.60;;;0.90;;
13230;SDS011;6681;53.254;10.398;2023-08-01T13:36:22;2.00;;;1.27;;
13230;SDS011;6681;53.254;10.398;2023-08-01T13:38:49;5.03;;;0.93;;
13230;SDS011;6681;53.254;10.398;2023-08-01T13:41:14;1.40;;;1.30;;
13230;SDS011;6681;53.254;10.398;2023-08-01T13:43:40;2.23;;;1.73;;
13230;SDS011;6681;53.254;10.398;2023-08-01T13:46:13;0.87;;;0.87;;
13230;SDS011;6681;53.254;10.398;2023-08-01T13:48:41;1.23;;;1.13;;
13230;SDS011;6681;53.254;10.398;2023-08-01T13:51:07;2.40;;;1.50;;
13230;SDS011;6681;53.254;10.398;2023-08-01T13:53:32;2.37;;;1.20;;
13230;SDS011;6681;53.254;10.398;2023-08-01T13:55:58;2.20;;;1.33;;
13230;SDS011;6681;53.254;10.398;2023-08-01T13:58:24;1.00;;;0.90;;
13230;SDS011;6681;53.254;10.398;2023-08-01T14:00:50;1.40;;;0.80;;
13230;SDS011;6681;53.254;10.398;2023-08-01T14:03:16;1.67;;;1.00;;
13230;SDS011;6681;53.254;10.398;2023-08-01T14:05:41;0.93;;;0.70;;
13230;SDS011;6681;53.254;10.398;2023-08-01T14:08:07;1.27;;;1.17;;
13230;SDS011;6681;53.254;10.398;2023-08-01T14:10:32;1.57;;;1.47;;
13230;SDS011;6681;53.254;10.398;2023-08-01T14:12:58;1.77;;;1.63;;
13230;SDS011;6681;53.254;10.398;2023-08-01T14:15:24;2.10;;;0.87;;
13230;SDS011;6681;53.254;10.398;2023-08-01T14:17:49;1.20;;;0.60;;
13230;SDS011;6681;53.254;10.398;2023-08-01T14:20:15;2.37;;;1.00;;
13230;SDS011;6681;53.254;10.398;2023-08-01T14:22:41;2.03;;;1.07;;
13230;SDS011;6681;53.254;10.398;2023-08-01T14:25:11;1.90;;;0.93;;
13230;SDS011;6681;53.254;10.398;2023-08-01T14:27:36;0.70;;;0.70;;
13230;SDS011;6681;53.254;10.398;2023-08-01T14:30:02;0.80;;;0.70;;
13230;SDS011;6681;53.254;10.398;2023-08-01T14:32:30;2.03;;;0.63;;
13230;SDS011;6681;53.254;10.398;2023-08-01T14:34:56;1.10;;;0.60;;
13230;SDS011;6681;53.254;10.398;2023-08-01T14:37:22;0.63;;;0.63;;
13230;SDS011;6681;53.254;10.398;2023-08-01T14:39:49;2.50;;;0.73;;
13230;SDS011;6681;53.254;10.398;2023-08-01T14:42:15;0.90;;;0.60;;
13230;SDS011;6681;53.254;10.398;2023-08-01T14:44:41;1.67;;;1.27;;
13230;SDS011;6681;53.254;10.398;2023-08-01T14:47:07;2.10;;;0.77;;
13230;SDS011;6681;53.254;10.398;2023-08-01T14:49:32;0.33;;;0.33;;
13230;SDS011;6681;53.254;10.398;2023-08-01T14:51:58;2.07;;;0.40;;